createdAt,value
2022-10-16T00:00:14.648Z,100985.59
2022-10-16T00:00:47.837Z,100981.28
2022-10-16T00:01:21.930Z,100987.16
2022-10-16T00:01:58.087Z,100987.91
2022-10-16T00:02:32.030Z,100978.16
2022-10-16T00:03:06.330Z,100980.50
2022-10-16T00:03:38.939Z,100985.97
2022-10-16T00:04:11.017Z,100984.00
2022-10-16T00:04:42.526Z,100978.53
2022-10-16T00:05:17.129Z,100981.28
2022-10-16T00:05:50.921Z,100976.97
2022-10-16T00:06:23.299Z,100975.81
2022-10-16T00:06:54.759Z,100977.38
2022-10-16T00:07:26.752Z,100979.34
2022-10-16T00:07:58.599Z,100983.25
2022-10-16T00:08:31.247Z,100977.75
2022-10-16T00:09:05.673Z,100976.97
2022-10-16T00:09:37.111Z,100976.56
2022-10-16T00:10:13.742Z,100977.38
2022-10-16T00:10:45.283Z,100978.53
2022-10-16T00:11:28.119Z,100984.41
2022-10-16T00:11:59.570Z,100982.81
2022-10-16T00:12:31.161Z,100975.78
2022-10-16T00:13:03.402Z,100984.38
2022-10-16T00:13:36.973Z,100981.28
2022-10-16T00:14:17.146Z,100982.44
2022-10-16T00:14:48.725Z,100976.16
2022-10-16T00:15:25.758Z,100983.19
2022-10-16T00:16:00.296Z,100978.16
2022-10-16T00:16:32.458Z,100980.06
2022-10-16T00:17:08.299Z,100984.75
2022-10-16T00:17:42.402Z,100981.25
2022-10-16T00:18:20.198Z,100986.72
2022-10-16T00:18:51.696Z,100984.75
2022-10-16T00:19:25.896Z,100986.72
2022-10-16T00:20:02.253Z,100980.44
2022-10-16T00:20:37.843Z,100979.28
2022-10-16T00:21:15.206Z,100979.66
2022-10-16T00:21:46.843Z,100988.66
2022-10-16T00:22:30.476Z,100980.06
2022-10-16T00:23:05.180Z,100977.72
2022-10-16T00:23:40.656Z,100986.28
2022-10-16T00:24:12.074Z,100986.28
2022-10-16T00:24:45.521Z,100986.31
2022-10-16T00:25:19.293Z,100984.34
2022-10-16T00:26:01.639Z,100994.91
2022-10-16T00:26:39.855Z,100992.16
2022-10-16T00:27:11.572Z,100985.91
2022-10-16T00:27:43.216Z,100990.19
2022-10-16T00:28:19.110Z,100987.47
2022-10-16T00:28:53.657Z,100989.81
2022-10-16T00:29:27.470Z,100993.75
2022-10-16T00:30:32.845Z,100998.81
2022-10-16T00:31:08.354Z,100994.53
2022-10-16T00:31:40.024Z,100989.44
2022-10-16T00:32:14.117Z,100998.03
2022-10-16T00:32:45.587Z,100991.00
2022-10-16T00:33:17.124Z,100984.38
2022-10-16T00:33:49.497Z,100989.06
2022-10-16T00:34:23.354Z,100984.38
2022-10-16T00:34:55.831Z,100988.69
2022-10-16T00:35:27.518Z,100989.06
2022-10-16T00:36:04.364Z,100984.00
2022-10-16T00:36:41.100Z,100984.38
2022-10-16T00:37:15.694Z,100991.03
2022-10-16T00:37:47.267Z,100987.16
2022-10-16T00:38:21.055Z,100989.09
2022-10-16T00:38:55.818Z,100982.06
2022-10-16T00:39:30.448Z,100974.66
2022-10-16T00:40:01.868Z,100981.28
2022-10-16T00:40:36.428Z,100979.34
2022-10-16T00:41:10.756Z,100978.16
2022-10-16T00:41:42.341Z,100982.06
2022-10-16T00:42:19.005Z,100972.69
2022-10-16T00:42:50.630Z,100977.38
2022-10-16T00:43:52.884Z,100987.19
2022-10-16T00:44:45.804Z,100985.56
2022-10-16T00:45:17.451Z,100984.00
2022-10-16T00:45:48.812Z,100984.00
2022-10-16T00:46:24.050Z,100988.31
2022-10-16T00:46:55.530Z,100980.53
2022-10-16T00:47:33.316Z,100980.50
2022-10-16T00:48:42.172Z,100975.03
2022-10-16T00:49:22.587Z,100982.06
2022-10-16T00:50:24.527Z,100973.84
2022-10-16T00:50:59.319Z,100985.56
2022-10-16T00:51:36.844Z,100989.84
2022-10-16T00:52:08.813Z,100993.78
2022-10-16T00:52:47.814Z,100993.78
2022-10-16T00:53:19.212Z,100991.44
2022-10-16T00:53:53.901Z,100980.50
2022-10-16T00:54:31.607Z,100980.50
2022-10-16T00:55:09.816Z,100982.84
2022-10-16T00:55:42.646Z,100989.09
2022-10-16T00:56:15.496Z,100985.97
2022-10-16T00:56:50.798Z,100984.00
2022-10-16T00:57:22.574Z,100989.91
2022-10-16T00:57:54.376Z,100990.69
2022-10-16T00:58:26.166Z,100990.69
2022-10-16T00:58:59.166Z,100982.06
2022-10-16T00:59:39.369Z,100978.53
2022-10-16T01:00:13.853Z,100989.16
2022-10-16T01:00:45.330Z,100986.38
2022-10-16T01:01:20.303Z,100985.56
2022-10-16T01:01:52.697Z,100991.47
2022-10-16T01:02:27.115Z,100984.06
2022-10-16T01:03:02.295Z,100991.47
2022-10-16T01:03:36.402Z,100994.56
2022-10-16T01:04:09.959Z,100987.59
2022-10-16T01:04:45.696Z,100988.38
2022-10-16T01:05:18.458Z,100989.91
2022-10-16T01:06:16.083Z,100984.47
2022-10-16T01:07:05.108Z,100988.00
2022-10-16T01:08:03.825Z,100995.03
2022-10-16T01:08:45.575Z,100988.38
2022-10-16T01:09:26.096Z,100997.38
2022-10-16T01:10:16.744Z,100993.47
2022-10-16T01:11:11.324Z,100999.34
2022-10-16T01:11:48.619Z,101007.13
2022-10-16T01:12:32.058Z,101002.06
2022-10-16T01:13:11.918Z,101002.06
2022-10-16T01:13:49.591Z,101008.31
2022-10-16T01:14:33.074Z,100998.19
2022-10-16T01:15:13.055Z,101010.69
2022-10-16T01:16:10.905Z,101001.28
2022-10-16T01:16:58.044Z,100993.47
2022-10-16T01:17:53.459Z,101002.06
2022-10-16T01:18:38.908Z,100997.03
2022-10-16T01:19:18.277Z,100989.97
2022-10-16T01:20:09.042Z,100996.63
2022-10-16T01:20:50.100Z,100993.09
2022-10-16T01:21:49.838Z,100997.03
2022-10-16T01:22:37.532Z,100994.28
2022-10-16T01:23:20.953Z,100993.53
2022-10-16T01:24:11.519Z,100995.09
2022-10-16T01:24:57.681Z,100981.78
2022-10-16T01:25:47.284Z,100988.06
2022-10-16T01:26:56.403Z,100979.88
2022-10-16T01:27:37.064Z,100975.56
2022-10-16T01:28:12.959Z,100988.06
2022-10-16T01:29:10.737Z,100983.00
2022-10-16T01:29:52.510Z,100983.78
2022-10-16T01:30:31.746Z,100982.22
2022-10-16T01:31:06.704Z,100988.84
2022-10-16T01:31:41.492Z,100986.50
2022-10-16T01:32:20.340Z,100988.84
2022-10-16T01:33:00.872Z,100986.09
2022-10-16T01:33:46.485Z,100988.84
2022-10-16T01:34:33.034Z,100991.97
2022-10-16T01:35:49.517Z,100988.47
2022-10-16T01:36:27.706Z,100987.28
2022-10-16T01:37:06.355Z,100985.72
2022-10-16T01:37:40.838Z,100997.09
2022-10-16T01:38:22.656Z,100988.50
2022-10-16T01:39:01.878Z,100986.13
2022-10-16T01:39:42.420Z,100970.91
2022-10-16T01:40:20.709Z,100986.91
2022-10-16T01:40:58.759Z,100992.78
2022-10-16T01:41:42.333Z,100985.78
2022-10-16T01:42:28.241Z,100998.66
2022-10-16T01:43:19.934Z,100998.28
2022-10-16T01:44:02.546Z,100989.28
2022-10-16T01:44:39.286Z,100992.78
2022-10-16T01:45:15.739Z,100999.81
2022-10-16T01:45:51.567Z,100990.06
2022-10-16T01:46:30.589Z,100981.44
2022-10-16T01:47:02.603Z,100989.28
2022-10-16T01:47:39.094Z,100992.03
2022-10-16T01:48:15.180Z,100983.81
2022-10-16T01:48:51.279Z,100993.97
2022-10-16T01:49:32.719Z,100995.13
2022-10-16T01:50:06.465Z,100993.19
2022-10-16T01:50:41.495Z,100983.03
2022-10-16T01:51:15.793Z,100978.34
2022-10-16T01:51:56.156Z,100992.44
2022-10-16T01:52:30.963Z,100984.59
2022-10-16T01:53:05.758Z,100976.00
2022-10-16T01:53:38.173Z,100987.38
2022-10-16T01:54:17.504Z,100983.81
2022-10-16T01:54:53.395Z,100982.28
2022-10-16T01:55:31.801Z,100981.91
2022-10-16T01:56:11.221Z,100990.47
2022-10-16T01:56:43.756Z,100979.94
2022-10-16T01:57:24.001Z,100991.66
2022-10-16T01:57:56.609Z,100980.72
2022-10-16T01:58:36.323Z,100993.25
2022-10-16T01:59:17.946Z,100983.47
2022-10-16T01:59:56.939Z,100978.38
2022-10-16T02:00:32.458Z,100981.53
2022-10-16T02:01:06.079Z,100974.47
2022-10-16T02:01:41.421Z,100985.44
2022-10-16T02:02:16.058Z,100982.72
2022-10-16T02:02:53.995Z,100972.16
2022-10-16T02:03:34.162Z,100979.16
2022-10-16T02:04:17.647Z,100977.59
2022-10-16T02:04:59.255Z,100986.19
2022-10-16T02:05:40.820Z,100974.09
2022-10-16T02:06:14.327Z,100975.66
2022-10-16T02:06:45.961Z,100974.47
2022-10-16T02:07:20.585Z,100974.88
2022-10-16T02:07:59.431Z,100965.91
2022-10-16T02:08:36.925Z,100972.13
2022-10-16T02:09:17.158Z,100964.34
2022-10-16T02:09:48.809Z,100962.75
2022-10-16T02:10:32.840Z,100965.50
2022-10-16T02:11:06.752Z,100974.88
2022-10-16T02:11:44.979Z,100980.72
2022-10-16T02:12:26.185Z,100983.88
2022-10-16T02:13:12.769Z,100971.75
2022-10-16T02:14:01.033Z,100977.22
2022-10-16T02:14:38.650Z,100978.41
2022-10-16T02:15:11.835Z,100981.91
2022-10-16T02:15:45.969Z,100980.72
2022-10-16T02:16:24.535Z,100978.00
2022-10-16T02:17:00.719Z,100981.53
2022-10-16T02:17:36.022Z,100980.72
2022-10-16T02:18:11.137Z,100983.88
2022-10-16T02:18:45.023Z,100970.97
2022-10-16T02:19:21.306Z,100979.19
2022-10-16T02:20:01.626Z,100972.53
2022-10-16T02:21:31.466Z,100976.03
2022-10-16T02:22:07.709Z,100972.53
2022-10-16T02:22:49.594Z,100984.25
2022-10-16T02:23:33.069Z,100981.13
2022-10-16T02:24:21.656Z,100981.50
2022-10-16T02:25:09.313Z,100988.16
2022-10-16T02:25:45.472Z,100977.22
2022-10-16T02:26:27.384Z,100985.41
2022-10-16T02:27:09.650Z,100988.94
2022-10-16T02:28:01.316Z,100987.78
2022-10-16T02:28:56.736Z,100994.81
2022-10-16T02:29:31.745Z,100989.72
2022-10-16T02:30:10.203Z,100987.78
2022-10-16T02:31:02.580Z,100999.84
2022-10-16T02:31:41.670Z,100999.50
2022-10-16T02:32:20.775Z,100994.41
2022-10-16T02:33:01.636Z,100990.50
2022-10-16T02:33:37.240Z,100993.22
2022-10-16T02:34:13.433Z,100987.78
2022-10-16T02:34:51.985Z,100980.72
2022-10-16T02:35:29.785Z,100985.81
2022-10-16T02:36:04.429Z,100990.09
2022-10-16T02:37:10.251Z,100986.59
2022-10-16T02:37:55.840Z,100985.41
2022-10-16T02:38:31.334Z,100991.66
2022-10-16T02:39:13.285Z,100990.47
2022-10-16T02:39:44.914Z,100986.56
2022-10-16T02:40:22.939Z,100988.53
2022-10-16T02:40:57.633Z,100981.88
2022-10-16T02:41:37.651Z,100989.28
2022-10-16T02:42:14.090Z,100986.16
2022-10-16T02:42:52.892Z,100997.50
2022-10-16T02:43:35.544Z,100993.97
2022-10-16T02:44:10.794Z,100992.78
2022-10-16T02:44:42.253Z,100997.09
2022-10-16T02:45:14.066Z,100998.25
2022-10-16T02:45:59.561Z,100998.25
2022-10-16T02:46:40.183Z,100998.25
2022-10-16T02:47:46.953Z,101004.13
2022-10-16T02:48:20.165Z,101001.78
2022-10-16T02:48:52.812Z,100997.84
2022-10-16T02:49:26.105Z,101004.50
2022-10-16T02:49:57.486Z,101002.94
2022-10-16T02:50:31.972Z,101008.00
2022-10-16T02:51:06.224Z,100998.59
2022-10-16T02:51:41.570Z,101005.63
2022-10-16T02:52:21.686Z,101007.97
2022-10-16T02:53:08.136Z,101006.44
2022-10-16T02:53:41.147Z,101004.44
2022-10-16T02:54:21.041Z,101006.41
2022-10-16T02:54:55.345Z,101012.69
2022-10-16T02:55:31.575Z,101005.63
2022-10-16T02:56:11.212Z,101008.00
2022-10-16T02:56:49.475Z,101001.75
2022-10-16T02:57:26.903Z,101005.63
2022-10-16T02:58:04.156Z,101016.56
2022-10-16T02:58:40.371Z,101013.47
2022-10-16T02:59:17.257Z,101011.09
2022-10-16T02:59:48.860Z,101002.91
2022-10-16T03:00:22.343Z,101011.50
2022-10-16T03:01:02.955Z,101009.56
2022-10-16T03:01:34.825Z,101013.84
2022-10-16T03:02:06.420Z,101008.78
2022-10-16T03:02:40.477Z,101007.59
2022-10-16T03:03:14.233Z,101000.19
2022-10-16T03:03:48.089Z,101011.91
2022-10-16T03:04:21.679Z,101006.81
2022-10-16T03:05:08.807Z,101017.34
2022-10-16T03:05:52.936Z,101013.81
2022-10-16T03:06:26.680Z,101018.13
2022-10-16T03:07:06.430Z,101018.16
2022-10-16T03:07:40.493Z,101004.84
2022-10-16T03:08:15.763Z,101014.63
2022-10-16T03:08:52.974Z,101013.84
2022-10-16T03:09:29.476Z,101011.91
2022-10-16T03:10:02.552Z,101009.16
2022-10-16T03:10:41.489Z,101006.44
2022-10-16T03:11:18.878Z,101011.50
2022-10-16T03:11:54.853Z,101004.50
2022-10-16T03:12:31.728Z,101003.31
2022-10-16T03:13:07.416Z,101009.97
2022-10-16T03:13:47.775Z,101004.50
2022-10-16T03:14:24.404Z,100996.69
2022-10-16T03:14:57.973Z,101005.25
2022-10-16T03:15:31.723Z,101003.72
2022-10-16T03:16:08.981Z,100997.84
2022-10-16T03:16:48.263Z,100995.13
2022-10-16T03:17:29.572Z,100999.44
2022-10-16T03:18:06.564Z,100995.53
2022-10-16T03:18:47.240Z,100992.38
2022-10-16T03:19:19.487Z,101002.16
2022-10-16T03:19:54.156Z,100999.78
2022-10-16T03:20:38.633Z,100996.28
2022-10-16T03:21:11.526Z,100996.69
2022-10-16T03:21:47.625Z,101004.09
2022-10-16T03:22:21.513Z,101004.84
2022-10-16T03:22:53.289Z,101004.47
2022-10-16T03:23:36.553Z,100997.81
2022-10-16T03:24:08.237Z,101002.91
2022-10-16T03:24:39.835Z,100993.53
2022-10-16T03:25:16.286Z,101000.16
2022-10-16T03:25:55.898Z,101001.34
2022-10-16T03:26:32.058Z,101004.09
2022-10-16T03:27:08.720Z,101003.69
2022-10-16T03:27:45.628Z,101007.19
2022-10-16T03:28:17.047Z,101007.97
2022-10-16T03:28:54.972Z,101002.50
2022-10-16T03:29:33.052Z,101007.59
2022-10-16T03:30:04.916Z,101002.09
2022-10-16T03:30:43.511Z,101005.25
2022-10-16T03:31:16.148Z,101009.53
2022-10-16T03:31:56.495Z,101008.34
2022-10-16T03:33:09.032Z,101014.19
2022-10-16T03:33:42.609Z,101012.66
2022-10-16T03:34:21.471Z,101009.53
2022-10-16T03:34:55.182Z,101016.16
2022-10-16T03:35:38.277Z,101018.91
2022-10-16T03:36:12.799Z,101012.66
2022-10-16T03:36:44.488Z,101020.47
2022-10-16T03:37:18.470Z,101018.13
2022-10-16T03:37:51.379Z,101024.00
2022-10-16T03:38:26.994Z,101007.94
2022-10-16T03:39:10.258Z,101016.97
2022-10-16T03:39:41.685Z,101015.78
2022-10-16T03:40:19.840Z,101015.38
2022-10-16T03:41:03.805Z,101014.19
2022-10-16T03:41:42.790Z,101016.94
2022-10-16T03:42:24.374Z,101020.44
2022-10-16T03:43:11.774Z,101018.09
2022-10-16T03:43:53.085Z,101017.31
2022-10-16T03:44:29.670Z,101013.78
2022-10-16T03:45:11.735Z,101013.41
2022-10-16T03:45:55.146Z,101021.22
2022-10-16T03:46:32.655Z,101020.41
2022-10-16T03:47:09.475Z,101029.03
2022-10-16T03:47:48.779Z,101022.38
2022-10-16T03:48:25.820Z,101022.00
2022-10-16T03:48:57.238Z,101032.16
2022-10-16T03:49:39.573Z,101023.56
2022-10-16T03:50:18.598Z,101022.75
2022-10-16T03:51:07.801Z,101024.69
2022-10-16T03:51:41.469Z,101025.84
2022-10-16T03:52:30.586Z,101026.25
2022-10-16T03:53:06.280Z,101033.66
2022-10-16T03:53:50.110Z,101019.19
2022-10-16T03:54:29.593Z,101021.16
2022-10-16T03:55:13.582Z,101019.59
2022-10-16T03:55:59.416Z,101019.59
2022-10-16T03:56:32.320Z,101027.78
2022-10-16T03:57:16.269Z,101027.00
2022-10-16T03:57:55.022Z,101027.00
2022-10-16T03:58:32.036Z,101031.66
2022-10-16T03:59:15.696Z,101029.72
2022-10-16T03:59:56.243Z,101025.44
2022-10-16T04:00:30.482Z,101027.41
2022-10-16T04:01:06.933Z,101021.16
2022-10-16T04:01:49.646Z,101024.25
2022-10-16T04:02:22.199Z,101030.50
2022-10-16T04:02:59.870Z,101039.09
2022-10-16T04:03:31.251Z,101035.97
2022-10-16T04:04:15.449Z,101031.22
2022-10-16T04:04:52.796Z,101032.03
2022-10-16T04:05:27.289Z,101036.69
2022-10-16T04:06:03.986Z,101036.69
2022-10-16T04:06:35.561Z,101034.38
2022-10-16T04:07:14.333Z,101035.91
2022-10-16T04:07:50.530Z,101037.47
2022-10-16T04:08:28.082Z,101044.91
2022-10-16T04:09:01.672Z,101037.88
2022-10-16T04:09:41.955Z,101034.38
2022-10-16T04:10:13.546Z,101046.47
2022-10-16T04:10:54.029Z,101050.78
2022-10-16T04:11:25.438Z,101057.03
2022-10-16T04:12:02.663Z,101044.53
2022-10-16T04:12:41.544Z,101044.53
2022-10-16T04:13:49.676Z,101036.69
2022-10-16T04:14:24.081Z,101033.97
2022-10-16T04:15:13.094Z,101047.22
2022-10-16T04:15:48.248Z,101056.97
2022-10-16T04:16:28.115Z,101048.00
2022-10-16T04:17:00.594Z,101051.91
2022-10-16T04:17:36.373Z,101048.75
2022-10-16T04:18:15.958Z,101042.91
2022-10-16T04:18:52.689Z,101054.63
2022-10-16T04:19:26.810Z,101055.41
2022-10-16T04:20:01.993Z,101058.91
2022-10-16T04:20:36.560Z,101063.97
2022-10-16T04:21:19.327Z,101060.09
2022-10-16T04:22:01.633Z,101053.81
2022-10-16T04:22:38.392Z,101056.53
2022-10-16T04:23:14.679Z,101071.00
2022-10-16T04:23:53.490Z,101063.19
2022-10-16T04:24:27.782Z,101061.63
2022-10-16T04:25:04.222Z,101066.72
2022-10-16T04:25:39.899Z,101062.41
2022-10-16T04:26:12.514Z,101062.81
2022-10-16T04:26:48.636Z,101063.59
2022-10-16T04:27:26.022Z,101068.66
2022-10-16T04:28:02.257Z,101069.84
2022-10-16T04:28:39.428Z,101074.16
2022-10-16T04:29:19.396Z,101067.50
2022-10-16T04:29:59.542Z,101065.16
2022-10-16T04:30:30.961Z,101063.59
2022-10-16T04:31:13.956Z,101070.19
2022-10-16T04:32:00.491Z,101071.78
2022-10-16T04:32:37.844Z,101070.19
2022-10-16T04:33:19.561Z,101071.38
2022-10-16T04:33:54.271Z,101088.16
2022-10-16T04:34:28.677Z,101071.78
2022-10-16T04:35:04.547Z,101081.53
2022-10-16T04:36:52.966Z,101074.13
2022-10-16T04:37:26.516Z,101081.91
2022-10-16T04:37:59.580Z,101079.59
2022-10-16T04:38:31.295Z,101070.97
2022-10-16T04:39:10.444Z,101067.88
2022-10-16T04:39:54.374Z,101084.69
2022-10-16T04:40:42.079Z,101083.47
2022-10-16T04:41:16.267Z,101082.31
2022-10-16T04:41:54.985Z,101085.84
2022-10-16T04:42:33.941Z,101089.72
2022-10-16T04:43:06.949Z,101083.06
2022-10-16T04:43:38.378Z,101085.81
2022-10-16T04:44:20.951Z,101083.44
2022-10-16T04:44:55.922Z,101086.19
2022-10-16T04:45:35.111Z,101084.59
2022-10-16T04:46:16.361Z,101086.19
2022-10-16T04:46:52.116Z,101088.91
2022-10-16T04:47:26.044Z,101083.03
2022-10-16T04:48:20.577Z,101090.06
2022-10-16T04:49:00.448Z,101085.81
2022-10-16T04:49:40.248Z,101085.41
2022-10-16T04:50:14.523Z,101088.13
2022-10-16T04:51:00.804Z,101088.13
2022-10-16T04:51:44.243Z,101088.50
2022-10-16T04:52:18.932Z,101095.13
2022-10-16T04:52:54.586Z,101094.38
2022-10-16T04:53:30.486Z,101104.50
2022-10-16T04:54:04.147Z,101090.81
2022-10-16T04:54:40.476Z,101093.56
2022-10-16T04:55:24.004Z,101091.59
2022-10-16T04:56:05.743Z,101093.56
2022-10-16T04:56:55.041Z,101103.31
2022-10-16T04:57:33.918Z,101095.53
2022-10-16T04:58:07.159Z,101096.31
2022-10-16T04:58:42.330Z,101102.94
2022-10-16T04:59:26.153Z,101100.25
2022-10-16T05:00:01.976Z,101097.09
2022-10-16T05:00:44.509Z,101113.53
2022-10-16T05:01:17.183Z,101099.84
2022-10-16T05:01:51.195Z,101106.03
2022-10-16T05:02:28.507Z,101101.38
2022-10-16T05:03:14.600Z,101098.63
2022-10-16T05:03:52.916Z,101106.88
2022-10-16T05:04:24.512Z,101115.84
2022-10-16T05:04:58.532Z,101113.88
2022-10-16T05:05:33.367Z,101113.13
2022-10-16T05:06:26.309Z,101117.38
2022-10-16T05:07:07.980Z,101108.41
2022-10-16T05:07:46.774Z,101111.91
2022-10-16T05:08:20.503Z,101118.97
2022-10-16T05:08:56.150Z,101112.28
2022-10-16T05:09:30.356Z,101123.25
2022-10-16T05:10:10.686Z,101116.59
2022-10-16T05:10:45.902Z,101111.53
2022-10-16T05:11:39.732Z,101113.09
2022-10-16T05:12:33.608Z,101108.00
2022-10-16T05:13:05.091Z,101115.81
2022-10-16T05:13:39.605Z,101107.59
2022-10-16T05:14:19.404Z,101109.94
2022-10-16T05:15:01.025Z,101109.16
2022-10-16T05:15:36.829Z,101124.75
2022-10-16T05:16:10.297Z,101118.13
2022-10-16T05:16:51.033Z,101118.50
2022-10-16T05:17:22.807Z,101118.09
2022-10-16T05:17:59.083Z,101126.31
2022-10-16T05:18:31.712Z,101121.63
2022-10-16T05:19:26.145Z,101121.63
2022-10-16T05:20:04.688Z,101123.19
2022-10-16T05:21:28.314Z,101132.53
2022-10-16T05:22:00.103Z,101136.47
2022-10-16T05:22:41.920Z,101135.69
2022-10-16T05:23:17.974Z,101134.09
2022-10-16T05:23:51.675Z,101132.53
2022-10-16T05:24:25.101Z,101131.00
2022-10-16T05:25:03.415Z,101138.41
2022-10-16T05:25:38.437Z,101135.28
2022-10-16T05:26:11.221Z,101141.50
2022-10-16T05:26:54.186Z,101138.00
2022-10-16T05:27:34.413Z,101133.31
2022-10-16T05:28:08.222Z,101136.84
2022-10-16T05:28:41.348Z,101135.25
2022-10-16T05:29:12.966Z,101138.00
2022-10-16T05:29:59.075Z,101142.25
2022-10-16T05:30:40.324Z,101153.59
2022-10-16T05:31:23.648Z,101148.91
2022-10-16T05:32:06.936Z,101149.66
2022-10-16T05:32:51.654Z,101146.16
2022-10-16T05:33:52.037Z,101147.72
2022-10-16T05:34:29.360Z,101149.28
2022-10-16T05:35:08.747Z,101152.81
2022-10-16T05:35:50.868Z,101146.50
2022-10-16T05:36:40.065Z,101146.50
2022-10-16T05:37:22.440Z,101150.03
2022-10-16T05:37:58.126Z,101153.13
2022-10-16T05:38:41.222Z,101161.38
2022-10-16T05:39:15.022Z,101161.38
2022-10-16T05:39:50.780Z,101155.09
2022-10-16T05:40:54.132Z,101156.25
2022-10-16T05:41:36.409Z,101165.59
2022-10-16T05:42:16.395Z,101171.06
2022-10-16T05:43:03.020Z,101169.91
2022-10-16T05:43:43.129Z,101164.81
2022-10-16T05:44:45.403Z,101164.00
2022-10-16T05:45:23.596Z,101170.69
2022-10-16T05:46:28.804Z,101173.00
2022-10-16T05:47:03.765Z,101178.09
2022-10-16T05:47:58.308Z,101171.47
2022-10-16T05:48:37.580Z,101181.63
2022-10-16T05:49:13.438Z,101176.13
2022-10-16T05:49:56.376Z,101183.19
2022-10-16T05:50:38.695Z,101176.94
2022-10-16T05:51:18.583Z,101174.97
2022-10-16T05:51:52.333Z,101176.94
2022-10-16T05:52:27.941Z,101179.28
2022-10-16T05:52:59.369Z,101188.69
2022-10-16T05:53:35.391Z,101180.44
2022-10-16T05:54:21.975Z,101178.13
2022-10-16T05:54:57.043Z,101187.88
2022-10-16T05:55:30.913Z,101184.75
2022-10-16T05:56:16.447Z,101191.81
2022-10-16T05:56:58.968Z,101196.09
2022-10-16T05:57:40.027Z,101190.63
2022-10-16T05:58:25.739Z,101196.50
2022-10-16T05:59:27.281Z,101194.56
2022-10-16T06:01:22.023Z,101196.13
2022-10-16T06:02:14.896Z,101207.47
2022-10-16T06:02:48.893Z,101196.53
2022-10-16T06:03:32.353Z,101199.28
2022-10-16T06:04:06.415Z,101199.66
2022-10-16T06:04:39.622Z,101204.75
2022-10-16T06:05:14.084Z,101200.06
2022-10-16T06:07:28.031Z,101205.53
2022-10-16T06:08:10.056Z,101204.75
2022-10-16T06:08:43.512Z,101205.94
2022-10-16T06:09:15.154Z,101209.47
2022-10-16T06:09:53.628Z,101200.06
2022-10-16T06:10:50.358Z,101204.38
2022-10-16T06:11:38.639Z,101204.38
2022-10-16T06:12:21.022Z,101214.56
2022-10-16T06:13:00.980Z,101208.31
2022-10-16T06:13:46.215Z,101212.19
2022-10-16T06:15:13.133Z,101214.56
2022-10-16T06:15:44.756Z,101220.03
2022-10-16T06:16:43.042Z,101212.19
2022-10-16T06:17:31.500Z,101217.28
2022-10-16T06:18:18.513Z,101215.34
2022-10-16T06:19:01.809Z,101213.78
2022-10-16T06:19:43.566Z,101214.19
2022-10-16T06:20:19.496Z,101217.28
2022-10-16T06:20:52.602Z,101213.41
2022-10-16T06:21:34.753Z,101218.84
2022-10-16T06:22:08.240Z,101220.03
2022-10-16T06:22:39.617Z,101229.03
2022-10-16T06:23:15.899Z,101231.78
2022-10-16T06:24:37.555Z,101227.88
2022-10-16T06:25:09.461Z,101224.72
2022-10-16T06:25:45.699Z,101236.88
2022-10-16T06:26:23.401Z,101239.59
2022-10-16T06:27:06.928Z,101241.16
2022-10-16T06:27:43.192Z,101234.53
2022-10-16T06:28:15.349Z,101250.56
2022-10-16T06:28:50.460Z,101237.69
2022-10-16T06:29:23.855Z,101243.16
2022-10-16T06:30:10.588Z,101245.50
2022-10-16T06:30:47.453Z,101244.31
2022-10-16T06:31:23.063Z,101242.00
2022-10-16T06:31:57.000Z,101240.81
2022-10-16T06:32:33.141Z,101243.59
2022-10-16T06:33:30.245Z,101246.75
2022-10-16T06:34:02.248Z,101238.16
2022-10-16T06:34:45.483Z,101234.19
2022-10-16T06:35:19.434Z,101242.03
2022-10-16T06:35:50.981Z,101236.13
2022-10-16T06:36:31.845Z,101242.81
2022-10-16T06:37:20.866Z,101242.81
2022-10-16T06:37:59.062Z,101236.91
2022-10-16T06:38:37.948Z,101240.88
2022-10-16T06:39:20.007Z,101240.09
2022-10-16T06:40:04.896Z,101245.59
2022-10-16T06:40:43.073Z,101248.34
2022-10-16T06:41:22.817Z,101246.75
2022-10-16T06:42:06.875Z,101245.19
2022-10-16T06:42:59.941Z,101254.97
2022-10-16T06:43:39.359Z,101247.91
2022-10-16T06:44:13.152Z,101254.97
2022-10-16T06:44:50.208Z,101250.28
2022-10-16T06:45:26.746Z,101258.88
2022-10-16T06:46:02.434Z,101256.91
2022-10-16T06:46:34.827Z,101247.53
2022-10-16T06:47:10.520Z,101258.50
2022-10-16T06:47:43.108Z,101260.03
2022-10-16T06:48:14.941Z,101251.84
2022-10-16T06:48:51.255Z,101265.13
2022-10-16T06:49:25.991Z,101267.88
2022-10-16T06:49:57.695Z,101266.72
2022-10-16T06:50:29.155Z,101275.75
2022-10-16T06:51:43.176Z,101270.66
2022-10-16T06:52:22.426Z,101276.91
2022-10-16T06:53:04.065Z,101274.16
2022-10-16T06:53:54.565Z,101273.34
2022-10-16T06:54:29.919Z,101273.38
2022-10-16T06:55:01.937Z,101275.75
2022-10-16T06:55:39.336Z,101270.22
2022-10-16T06:56:17.967Z,101268.66
2022-10-16T06:56:57.348Z,101280.03
2022-10-16T06:57:34.763Z,101272.19
2022-10-16T06:58:10.818Z,101268.69
2022-10-16T06:58:44.300Z,101277.72
2022-10-16T06:59:18.555Z,101271.44
2022-10-16T06:59:54.555Z,101274.22
2022-10-16T07:00:26.869Z,101280.81
2022-10-16T07:01:00.883Z,101259.34
2022-10-16T07:01:32.804Z,101270.28
2022-10-16T07:02:04.284Z,101275.00
2022-10-16T07:02:44.363Z,101274.94
2022-10-16T07:03:16.107Z,101278.09
2022-10-16T07:03:48.080Z,101274.16
2022-10-16T07:04:19.824Z,101278.88
2022-10-16T07:04:51.967Z,101271.84
2022-10-16T07:05:25.299Z,101268.38
2022-10-16T07:05:57.177Z,101280.47
2022-10-16T07:06:32.778Z,101273.84
2022-10-16T07:07:08.568Z,101270.69
2022-10-16T07:07:40.912Z,101259.38
2022-10-16T07:08:12.304Z,101266.41
2022-10-16T07:08:46.561Z,101260.94
2022-10-16T07:09:18.349Z,101263.28
2022-10-16T07:09:49.926Z,101259.38
2022-10-16T07:10:25.137Z,101269.16
2022-10-16T07:11:01.315Z,101268.78
2022-10-16T07:11:33.809Z,101271.09
2022-10-16T07:12:05.676Z,101269.94
2022-10-16T07:12:37.120Z,101270.31
2022-10-16T07:13:08.610Z,101283.63
2022-10-16T07:13:41.957Z,101283.63
2022-10-16T07:14:17.374Z,101277.41
2022-10-16T07:14:49.056Z,101277.78
2022-10-16T07:15:20.452Z,101289.53
2022-10-16T07:15:51.883Z,101289.13
2022-10-16T07:16:26.737Z,101282.53
2022-10-16T07:16:58.104Z,101282.91
2022-10-16T07:17:29.493Z,101286.44
2022-10-16T07:18:01.127Z,101288.41
2022-10-16T07:18:33.510Z,101288.41
2022-10-16T07:19:04.975Z,101295.88
2022-10-16T07:19:36.589Z,101293.09
2022-10-16T07:20:08.630Z,101293.50
2022-10-16T07:20:47.285Z,101297.81
2022-10-16T07:21:21.520Z,101298.22
2022-10-16T07:21:52.963Z,101295.50
2022-10-16T07:22:24.649Z,101290.41
2022-10-16T07:22:56.285Z,101295.50
2022-10-16T07:23:27.750Z,101301.34
2022-10-16T07:24:01.964Z,101295.50
2022-10-16T07:24:33.546Z,101309.53